sensor_id;sensor_type;location;lat;lon;timestamp;pressure;altitude;pressure_sealevel;temperature;humidity
31873;BME280;22407;42.820;23.374;2024-01-10T00:01:22;96884.03;;;-5.25;69.90
31873;BME280;22407;42.820;23.374;2024-01-10T00:03:52;96886.53;;;-5.46;70.13
31873;BME280;22407;42.820;23.374;2024-01-10T00:06:18;96879.59;;;-5.47;69.80
31873;BME280;22407;42.820;23.374;2024-01-10T00:08:43;96883.38;;;-5.27;69.28
31873;BME280;22407;42.820;23.374;2024-01-10T00:11:09;96893.38;;;-5.37;69.59
31873;BME280;22407;42.820;23.374;2024-01-10T00:13:34;96888.16;;;-5.45;68.19
31873;BME280;22407;42.820;23.374;2024-01-10T00:16:00;96888.31;;;-5.10;68.60
31873;BME280;22407;42.820;23.374;2024-01-10T00:18:26;96889.75;;;-5.21;67.13
31873;BME280;22407;42.820;23.374;2024-01-10T00:20:52;96892.50;;;-5.15;66.84
31873;BME280;22407;42.820;23.374;2024-01-10T00:23:21;96888.09;;;-5.37;67.01
31873;BME280;22407;42.820;23.374;2024-01-10T00:25:47;96892.25;;;-5.42;67.12
31873;BME280;22407;42.820;23.374;2024-01-10T00:28:13;96898.00;;;-5.39;66.18
31873;BME280;22407;42.820;23.374;2024-01-10T00:30:39;96894.00;;;-5.35;64.69
31873;BME280;22407;42.820;23.374;2024-01-10T00:33:05;96894.50;;;-5.54;63.69
31873;BME280;22407;42.820;23.374;2024-01-10T00:35:31;96901.16;;;-5.43;64.34
31873;BME280;22407;42.820;23.374;2024-01-10T00:37:56;96894.78;;;-5.12;63.47
31873;BME280;22407;42.820;23.374;2024-01-10T00:40:23;96892.78;;;-5.10;63.50
31873;BME280;22407;42.820;23.374;2024-01-10T00:42:48;96899.63;;;-5.38;63.63
31873;BME280;22407;42.820;23.374;2024-01-10T00:45:16;96896.91;;;-5.44;63.25
31873;BME280;22407;42.820;23.374;2024-01-10T00:47:41;96895.66;;;-5.34;63.52
31873;BME280;22407;42.820;23.374;2024-01-10T00:50:08;96891.81;;;-5.31;60.35
31873;BME280;22407;42.820;23.374;2024-01-10T00:52:33;96898.00;;;-5.39;60.65
31873;BME280;22407;42.820;23.374;2024-01-10T00:54:59;96901.41;;;-5.16;62.79
31873;BME280;22407;42.820;23.374;2024-01-10T00:57:24;96900.25;;;-4.99;61.31
31873;BME280;22407;42.820;23.374;2024-01-10T00:59:50;96897.34;;;-4.90;61.75
31873;BME280;22407;42.820;23.374;2024-01-10T01:02:16;96897.84;;;-5.23;60.84
31873;BME280;22407;42.820;23.374;2024-01-10T01:04:41;96889.97;;;-5.09;62.07
31873;BME280;22407;42.820;23.374;2024-01-10T01:07:07;96902.16;;;-5.08;61.81
31873;BME280;22407;42.820;23.374;2024-01-10T01:09:34;96893.59;;;-5.10;60.75
31873;BME280;22407;42.820;23.374;2024-01-10T01:11:59;96897.28;;;-5.33;60.92
31873;BME280;22407;42.820;23.374;2024-01-10T01:14:25;96892.94;;;-5.26;61.38
31873;BME280;22407;42.820;23.374;2024-01-10T01:16:50;96882.03;;;-5.23;61.40
31873;BME280;22407;42.820;23.374;2024-01-10T01:19:17;96877.09;;;-5.26;60.95
31873;BME280;22407;42.820;23.374;2024-01-10T01:21:43;96889.28;;;-5.25;61.16
31873;BME280;22407;42.820;23.374;2024-01-10T01:24:08;96884.66;;;-5.23;61.66
31873;BME280;22407;42.820;23.374;2024-01-10T01:26:34;96884.84;;;-5.24;60.04
31873;BME280;22407;42.820;23.374;2024-01-10T01:28:59;96884.50;;;-5.07;60.67
31873;BME280;22407;42.820;23.374;2024-01-10T01:31:25;96869.41;;;-4.99;58.89
31873;BME280;22407;42.820;23.374;2024-01-10T01:33:50;96874.41;;;-4.89;57.67
31873;BME280;22407;42.820;23.374;2024-01-10T01:36:16;96873.13;;;-4.93;57.06
31873;BME280;22407;42.820;23.374;2024-01-10T01:38:42;96868.41;;;-4.98;57.31
31873;BME280;22407;42.820;23.374;2024-01-10T01:41:07;96868.59;;;-4.99;56.67
31873;BME280;22407;42.820;23.374;2024-01-10T01:43:33;96872.13;;;-5.21;57.39
31873;BME280;22407;42.820;23.374;2024-01-10T01:45:59;96868.09;;;-5.17;57.21
31873;BME280;22407;42.820;23.374;2024-01-10T01:48:24;96870.41;;;-5.00;58.10
31873;BME280;22407;42.820;23.374;2024-01-10T01:51:09;96857.63;;;-5.25;57.33
31873;BME280;22407;42.820;23.374;2024-01-10T01:53:36;96868.53;;;-5.28;58.01
31873;BME280;22407;42.820;23.374;2024-01-10T01:56:05;96867.84;;;-5.22;56.50
31873;BME280;22407;42.820;23.374;2024-01-10T01:58:31;96866.84;;;-5.21;57.21
31873;BME280;22407;42.820;23.374;2024-01-10T02:00:57;96861.69;;;-5.51;58.32
31873;BME280;22407;42.820;23.374;2024-01-10T02:03:23;96864.25;;;-5.29;56.96
31873;BME280;22407;42.820;23.374;2024-01-10T02:05:49;96852.78;;;-5.36;57.35
31873;BME280;22407;42.820;23.374;2024-01-10T02:08:15;96855.31;;;-5.42;57.21
31873;BME280;22407;42.820;23.374;2024-01-10T02:10:41;96848.63;;;-5.30;57.29
31873;BME280;22407;42.820;23.374;2024-01-10T02:13:06;96854.34;;;-5.27;58.14
31873;BME280;22407;42.820;23.374;2024-01-10T02:15:35;96850.28;;;-5.15;58.44
31873;BME280;22407;42.820;23.374;2024-01-10T02:18:01;96848.38;;;-5.21;59.24
31873;BME280;22407;42.820;23.374;2024-01-10T02:20:26;96841.81;;;-5.25;60.31
31873;BME280;22407;42.820;23.374;2024-01-10T02:22:52;96844.00;;;-5.14;61.15
31873;BME280;22407;42.820;23.374;2024-01-10T02:25:18;96840.25;;;-5.05;59.21
31873;BME280;22407;42.820;23.374;2024-01-10T02:27:44;96848.63;;;-5.30;59.39
31873;BME280;22407;42.820;23.374;2024-01-10T02:30:10;96853.19;;;-5.10;61.36
31873;BME280;22407;42.820;23.374;2024-01-10T02:32:36;96846.28;;;-5.62;58.07
31873;BME280;22407;42.820;23.374;2024-01-10T02:35:02;96840.28;;;-5.71;58.76
31873;BME280;22407;42.820;23.374;2024-01-10T02:37:28;96848.28;;;-5.79;60.49
31873;BME280;22407;42.820;23.374;2024-01-10T02:39:53;96834.09;;;-5.78;60.69
31873;BME280;22407;42.820;23.374;2024-01-10T02:42:19;96845.88;;;-5.37;59.53
31873;BME280;22407;42.820;23.374;2024-01-10T02:44:45;96838.22;;;-5.61;60.96
31873;BME280;22407;42.820;23.374;2024-01-10T02:47:12;96849.25;;;-5.43;61.74
31873;BME280;22407;42.820;23.374;2024-01-10T02:49:37;96847.97;;;-5.47;62.19
31873;BME280;22407;42.820;23.374;2024-01-10T02:52:03;96846.38;;;-5.70;62.38
31873;BME280;22407;42.820;23.374;2024-01-10T02:54:29;96850.66;;;-5.69;62.74
31873;BME280;22407;42.820;23.374;2024-01-10T02:56:54;96835.03;;;-5.56;63.70
31873;BME280;22407;42.820;23.374;2024-01-10T02:59:19;96846.69;;;-5.51;59.63
31873;BME280;22407;42.820;23.374;2024-01-10T03:01:45;96848.53;;;-5.88;57.82
31873;BME280;22407;42.820;23.374;2024-01-10T03:04:10;96852.97;;;-5.89;57.73
31873;BME280;22407;42.820;23.374;2024-01-10T03:06:36;96847.13;;;-5.98;58.41
31873;BME280;22407;42.820;23.374;2024-01-10T03:09:02;96849.81;;;-6.06;58.34
31873;BME280;22407;42.820;23.374;2024-01-10T03:11:28;96847.75;;;-5.96;58.00
31873;BME280;22407;42.820;23.374;2024-01-10T03:14:23;96856.44;;;-5.74;59.50
31873;BME280;22407;42.820;23.374;2024-01-10T03:16:49;96850.84;;;-5.71;57.42
31873;BME280;22407;42.820;23.374;2024-01-10T03:19:15;96853.97;;;-5.53;58.74
31873;BME280;22407;42.820;23.374;2024-01-10T03:21:40;96855.22;;;-5.49;58.11
31873;BME280;22407;42.820;23.374;2024-01-10T03:24:06;96854.25;;;-5.33;60.03
31873;BME280;22407;42.820;23.374;2024-01-10T03:26:32;96856.22;;;-5.64;60.57
31873;BME280;22407;42.820;23.374;2024-01-10T03:28:57;96861.91;;;-5.75;64.39
31873;BME280;22407;42.820;23.374;2024-01-10T03:31:23;96847.09;;;-5.76;65.32
31873;BME280;22407;42.820;23.374;2024-01-10T03:33:49;96857.03;;;-5.64;66.98
31873;BME280;22407;42.820;23.374;2024-01-10T03:36:16;96862.94;;;-5.62;67.62
31873;BME280;22407;42.820;23.374;2024-01-10T03:38:43;96864.09;;;-5.79;69.40
31873;BME280;22407;42.820;23.374;2024-01-10T03:41:18;96861.72;;;-5.74;69.20
31873;BME280;22407;42.820;23.374;2024-01-10T03:43:44;96860.84;;;-5.81;69.42
31873;BME280;22407;42.820;23.374;2024-01-10T03:46:10;96866.16;;;-5.89;64.48
31873;BME280;22407;42.820;23.374;2024-01-10T03:48:36;96866.28;;;-5.68;66.67
31873;BME280;22407;42.820;23.374;2024-01-10T03:51:03;96860.69;;;-5.50;68.42
31873;BME280;22407;42.820;23.374;2024-01-10T03:53:30;96860.06;;;-5.38;64.71
31873;BME280;22407;42.820;23.374;2024-01-10T03:55:56;96858.50;;;-5.47;61.11
31873;BME280;22407;42.820;23.374;2024-01-10T03:58:21;96870.47;;;-5.59;59.94
31873;BME280;22407;42.820;23.374;2024-01-10T04:00:47;96868.59;;;-5.50;60.52
31873;BME280;22407;42.820;23.374;2024-01-10T04:03:13;96871.94;;;-5.71;58.07
31873;BME280;22407;42.820;23.374;2024-01-10T04:05:38;96866.44;;;-5.84;58.98
31873;BME280;22407;42.820;23.374;2024-01-10T04:08:04;96869.50;;;-5.94;58.59
31873;BME280;22407;42.820;23.374;2024-01-10T04:10:30;96868.63;;;-5.73;58.56
31873;BME280;22407;42.820;23.374;2024-01-10T04:12:55;96869.16;;;-5.92;58.48
31873;BME280;22407;42.820;23.374;2024-01-10T04:15:21;96884.66;;;-5.96;58.27
31873;BME280;22407;42.820;23.374;2024-01-10T04:17:46;96875.31;;;-5.99;58.67
31873;BME280;22407;42.820;23.374;2024-01-10T04:20:12;96873.13;;;-5.95;58.73
31873;BME280;22407;42.820;23.374;2024-01-10T04:22:38;96871.66;;;-5.98;59.12
31873;BME280;22407;42.820;23.374;2024-01-10T04:25:06;96874.84;;;-6.02;59.48
31873;BME280;22407;42.820;23.374;2024-01-10T04:27:32;96882.03;;;-5.96;59.09
31873;BME280;22407;42.820;23.374;2024-01-10T04:29:58;96885.66;;;-5.97;58.90
31873;BME280;22407;42.820;23.374;2024-01-10T04:32:24;96872.31;;;-5.96;58.28
31873;BME280;22407;42.820;23.374;2024-01-10T04:34:49;96887.81;;;-5.79;59.05
31873;BME280;22407;42.820;23.374;2024-01-10T04:37:15;96891.41;;;-5.94;57.83
31873;BME280;22407;42.820;23.374;2024-01-10T04:39:41;96897.16;;;-5.91;58.79
31873;BME280;22407;42.820;23.374;2024-01-10T04:42:10;96891.81;;;-5.83;57.92
31873;BME280;22407;42.820;23.374;2024-01-10T04:44:36;96897.16;;;-5.91;57.61
31873;BME280;22407;42.820;23.374;2024-01-10T04:47:01;96906.06;;;-5.92;56.44
31873;BME280;22407;42.820;23.374;2024-01-10T04:49:27;96904.81;;;-6.03;56.90
31873;BME280;22407;42.820;23.374;2024-01-10T04:51:52;96903.34;;;-6.06;57.26
31873;BME280;22407;42.820;23.374;2024-01-10T04:54:18;96911.97;;;-5.90;57.63
31873;BME280;22407;42.820;23.374;2024-01-10T04:56:43;96917.88;;;-5.88;57.75
31873;BME280;22407;42.820;23.374;2024-01-10T04:59:09;96919.88;;;-5.90;57.87
31873;BME280;22407;42.820;23.374;2024-01-10T05:01:35;96922.66;;;-6.13;56.86
31873;BME280;22407;42.820;23.374;2024-01-10T05:04:02;96934.91;;;-5.98;57.08
31873;BME280;22407;42.820;23.374;2024-01-10T05:06:28;96920.03;;;-6.13;58.35
31873;BME280;22407;42.820;23.374;2024-01-10T05:08:54;96920.22;;;-6.23;58.79
31873;BME280;22407;42.820;23.374;2024-01-10T05:11:23;96909.06;;;-6.25;58.48
31873;BME280;22407;42.820;23.374;2024-01-10T05:13:50;96918.13;;;-6.27;58.17
31873;BME280;22407;42.820;23.374;2024-01-10T05:16:15;96915.38;;;-6.34;58.74
31873;BME280;22407;42.820;23.374;2024-01-10T05:18:41;96916.22;;;-6.41;58.73
31873;BME280;22407;42.820;23.374;2024-01-10T05:21:07;96914.63;;;-6.50;58.71
31873;BME280;22407;42.820;23.374;2024-01-10T05:23:32;96916.28;;;-6.49;59.81
31873;BME280;22407;42.820;23.374;2024-01-10T05:25:58;96909.69;;;-6.23;59.60
31873;BME280;22407;42.820;23.374;2024-01-10T05:28:24;96911.19;;;-6.20;59.19
31873;BME280;22407;42.820;23.374;2024-01-10T05:30:49;96925.34;;;-6.21;63.26
31873;BME280;22407;42.820;23.374;2024-01-10T05:33:15;96927.66;;;-6.57;67.99
31873;BME280;22407;42.820;23.374;2024-01-10T05:35:42;96931.66;;;-6.69;69.56
31873;BME280;22407;42.820;23.374;2024-01-10T05:38:07;96931.72;;;-6.84;71.20
31873;BME280;22407;42.820;23.374;2024-01-10T05:40:33;96937.22;;;-7.10;72.52
31873;BME280;22407;42.820;23.374;2024-01-10T05:42:58;96941.56;;;-6.78;71.96
31873;BME280;22407;42.820;23.374;2024-01-10T05:45:27;96929.59;;;-6.89;70.22
31873;BME280;22407;42.820;23.374;2024-01-10T05:47:53;96930.88;;;-6.85;69.59
31873;BME280;22407;42.820;23.374;2024-01-10T05:50:19;96931.19;;;-6.72;65.93
31873;BME280;22407;42.820;23.374;2024-01-10T05:52:45;96935.19;;;-6.92;67.43
31873;BME280;22407;42.820;23.374;2024-01-10T05:55:11;96937.25;;;-7.42;70.90
31873;BME280;22407;42.820;23.374;2024-01-10T05:57:37;96943.31;;;-7.25;70.95
31873;BME280;22407;42.820;23.374;2024-01-10T06:00:03;96942.63;;;-7.19;71.19
31873;BME280;22407;42.820;23.374;2024-01-10T06:02:30;96943.97;;;-7.15;70.61
31873;BME280;22407;42.820;23.374;2024-01-10T06:04:56;96950.03;;;-7.23;70.65
31873;BME280;22407;42.820;23.374;2024-01-10T06:07:24;96948.44;;;-7.40;70.24
31873;BME280;22407;42.820;23.374;2024-01-10T06:09:50;96949.19;;;-7.07;68.11
31873;BME280;22407;42.820;23.374;2024-01-10T06:12:15;96946.72;;;-7.17;69.04
31873;BME280;22407;42.820;23.374;2024-01-10T06:14:41;96952.03;;;-7.41;72.13
31873;BME280;22407;42.820;23.374;2024-01-10T06:17:06;96952.69;;;-7.55;72.84
31873;BME280;22407;42.820;23.374;2024-01-10T06:19:33;96954.81;;;-7.42;74.44
31873;BME280;22407;42.820;23.374;2024-01-10T06:21:59;96965.03;;;-7.55;74.96
31873;BME280;22407;42.820;23.374;2024-01-10T06:24:25;96970.75;;;-7.75;75.74
31873;BME280;22407;42.820;23.374;2024-01-10T06:26:51;96973.09;;;-7.49;75.56
31873;BME280;22407;42.820;23.374;2024-01-10T06:29:18;96977.16;;;-7.38;75.43
31873;BME280;22407;42.820;23.374;2024-01-10T06:31:43;96979.47;;;-7.19;75.07
31873;BME280;22407;42.820;23.374;2024-01-10T06:34:09;96977.75;;;-6.88;72.93
31873;BME280;22407;42.820;23.374;2024-01-10T06:36:35;96983.50;;;-6.85;70.27
31873;BME280;22407;42.820;23.374;2024-01-10T06:39:01;96985.28;;;-6.70;70.10
31873;BME280;22407;42.820;23.374;2024-01-10T06:41:27;96982.47;;;-6.60;70.76
31873;BME280;22407;42.820;23.374;2024-01-10T06:43:52;96990.13;;;-6.43;65.16
31873;BME280;22407;42.820;23.374;2024-01-10T06:46:18;96985.06;;;-6.52;67.23
31873;BME280;22407;42.820;23.374;2024-01-10T06:48:44;96976.19;;;-6.51;67.65
31873;BME280;22407;42.820;23.374;2024-01-10T06:51:12;96987.97;;;-6.31;65.55
31873;BME280;22407;42.820;23.374;2024-01-10T06:53:37;96992.53;;;-6.25;63.08
31873;BME280;22407;42.820;23.374;2024-01-10T06:56:03;96991.69;;;-6.18;61.82
31873;BME280;22407;42.820;23.374;2024-01-10T06:58:29;96988.81;;;-6.08;61.58
31873;BME280;22407;42.820;23.374;2024-01-10T07:00:55;96988.63;;;-5.99;59.84
31873;BME280;22407;42.820;23.374;2024-01-10T07:03:20;96985.97;;;-5.99;58.78
31873;BME280;22407;42.820;23.374;2024-01-10T07:05:45;96993.38;;;-5.94;59.77
31873;BME280;22407;42.820;23.374;2024-01-10T07:08:11;97000.38;;;-6.17;61.14
31873;BME280;22407;42.820;23.374;2024-01-10T07:10:36;96999.34;;;-6.00;58.16
31873;BME280;22407;42.820;23.374;2024-01-10T07:13:04;96989.75;;;-5.93;59.24
31873;BME280;22407;42.820;23.374;2024-01-10T07:15:30;96997.31;;;-5.91;57.67
31873;BME280;22407;42.820;23.374;2024-01-10T07:17:55;96990.91;;;-5.74;57.38
31873;BME280;22407;42.820;23.374;2024-01-10T07:20:21;96994.59;;;-5.60;57.19
31873;BME280;22407;42.820;23.374;2024-01-10T07:22:49;96989.06;;;-5.43;56.07
31873;BME280;22407;42.820;23.374;2024-01-10T07:25:17;96996.63;;;-5.40;54.57
31873;BME280;22407;42.820;23.374;2024-01-10T07:27:45;96999.13;;;-5.46;55.07
31873;BME280;22407;42.820;23.374;2024-01-10T07:30:11;97000.88;;;-5.16;55.38
31873;BME280;22407;42.820;23.374;2024-01-10T07:32:43;96999.47;;;-5.27;54.18
31873;BME280;22407;42.820;23.374;2024-01-10T07:35:10;97003.41;;;-5.23;54.34
31873;BME280;22407;42.820;23.374;2024-01-10T07:37:37;97006.88;;;-5.08;53.43
31873;BME280;22407;42.820;23.374;2024-01-10T07:40:03;97009.13;;;-4.83;53.33
31873;BME280;22407;42.820;23.374;2024-01-10T07:42:34;97009.78;;;-4.81;53.89
31873;BME280;22407;42.820;23.374;2024-01-10T07:45:00;97010.28;;;-4.48;53.11
31873;BME280;22407;42.820;23.374;2024-01-10T07:47:30;97008.38;;;-4.26;52.32
31873;BME280;22407;42.820;23.374;2024-01-10T07:49:56;97010.53;;;-3.86;53.00
31873;BME280;22407;42.820;23.374;2024-01-10T07:52:22;97012.31;;;-3.72;48.98
31873;BME280;22407;42.820;23.374;2024-01-10T07:54:47;97012.78;;;-3.68;52.34
31873;BME280;22407;42.820;23.374;2024-01-10T07:57:13;97007.03;;;-3.72;50.85
31873;BME280;22407;42.820;23.374;2024-01-10T07:59:39;97002.88;;;-3.81;49.68
31873;BME280;22407;42.820;23.374;2024-01-10T08:02:05;97001.03;;;-3.80;47.79
31873;BME280;22407;42.820;23.374;2024-01-10T08:04:30;97003.41;;;-3.85;47.59
31873;BME280;22407;42.820;23.374;2024-01-10T08:06:56;97007.81;;;-3.57;49.46
31873;BME280;22407;42.820;23.374;2024-01-10T08:09:22;97009.22;;;-3.40;48.31
31873;BME280;22407;42.820;23.374;2024-01-10T08:11:49;97013.97;;;-3.36;49.26
31873;BME280;22407;42.820;23.374;2024-01-10T08:14:15;97011.75;;;-3.11;48.87
31873;BME280;22407;42.820;23.374;2024-01-10T08:16:41;97010.06;;;-3.19;47.02
31873;BME280;22407;42.820;23.374;2024-01-10T08:19:07;97017.66;;;-3.09;48.46
31873;BME280;22407;42.820;23.374;2024-01-10T08:21:33;97017.47;;;-3.29;47.93
31873;BME280;22407;42.820;23.374;2024-01-10T08:23:59;97014.41;;;-3.32;47.95
31873;BME280;22407;42.820;23.374;2024-01-10T08:26:27;97018.25;;;-3.35;47.77
31873;BME280;22407;42.820;23.374;2024-01-10T08:28:52;97024.09;;;-3.18;47.12
31873;BME280;22407;42.820;23.374;2024-01-10T08:31:18;97016.66;;;-2.87;50.47
31873;BME280;22407;42.820;23.374;2024-01-10T08:33:44;97015.97;;;-2.75;47.35
31873;BME280;22407;42.820;23.374;2024-01-10T08:36:10;97027.66;;;-2.36;49.44
31873;BME280;22407;42.820;23.374;2024-01-10T08:38:36;97017.19;;;-2.44;46.84
31873;BME280;22407;42.820;23.374;2024-01-10T08:41:02;97015.84;;;-2.33;46.66
31873;BME280;22407;42.820;23.374;2024-01-10T08:43:29;97017.91;;;-2.29;45.51
31873;BME280;22407;42.820;23.374;2024-01-10T08:45:54;97017.78;;;-2.14;45.53
31873;BME280;22407;42.820;23.374;2024-01-10T08:48:20;97015.50;;;-2.24;45.82
31873;BME280;22407;42.820;23.374;2024-01-10T08:50:46;97016.91;;;-1.94;46.64
31873;BME280;22407;42.820;23.374;2024-01-10T08:53:11;97015.22;;;-2.01;45.67
31873;BME280;22407;42.820;23.374;2024-01-10T08:55:37;97016.22;;;-1.62;46.74
31873;BME280;22407;42.820;23.374;2024-01-10T08:58:03;97013.84;;;-1.44;45.25
31873;BME280;22407;42.820;23.374;2024-01-10T09:00:29;97022.28;;;-1.21;45.47
31873;BME280;22407;42.820;23.374;2024-01-10T09:02:55;97016.41;;;-0.85;46.33
31873;BME280;22407;42.820;23.374;2024-01-10T09:05:21;97008.22;;;-1.02;51.00
31873;BME280;22407;42.820;23.374;2024-01-10T09:07:47;97011.09;;;-0.85;50.54
31873;BME280;22407;42.820;23.374;2024-01-10T09:10:13;97017.22;;;-0.90;50.83
31873;BME280;22407;42.820;23.374;2024-01-10T09:12:39;96999.63;;;-1.11;49.93
31873;BME280;22407;42.820;23.374;2024-01-10T09:15:05;97016.38;;;-0.97;50.71
31873;BME280;22407;42.820;23.374;2024-01-10T09:17:33;97004.47;;;-1.34;50.42
31873;BME280;22407;42.820;23.374;2024-01-10T09:19:59;96999.09;;;-1.60;50.00
31873;BME280;22407;42.820;23.374;2024-01-10T09:22:24;97003.25;;;-1.38;51.17
31873;BME280;22407;42.820;23.374;2024-01-10T09:24:50;97006.34;;;-1.21;49.23
31873;BME280;22407;42.820;23.374;2024-01-10T09:27:15;97001.81;;;-1.27;48.06
31873;BME280;22407;42.820;23.374;2024-01-10T09:29:41;96998.00;;;-0.92;48.58
31873;BME280;22407;42.820;23.374;2024-01-10T09:32:06;96997.19;;;-0.80;46.65
31873;BME280;22407;42.820;23.374;2024-01-10T09:34:32;97003.91;;;-1.76;49.64
31873;BME280;22407;42.820;23.374;2024-01-10T09:36:57;97004.25;;;-1.39;48.99
31873;BME280;22407;42.820;23.374;2024-01-10T09:39:23;97009.81;;;-1.14;49.35
31873;BME280;22407;42.820;23.374;2024-01-10T09:41:49;97000.88;;;-0.75;47.97
31873;BME280;22407;42.820;23.374;2024-01-10T09:44:20;97000.66;;;-0.92;49.45
31873;BME280;22407;42.820;23.374;2024-01-10T09:46:49;97009.06;;;-0.76;47.09
31873;BME280;22407;42.820;23.374;2024-01-10T09:49:16;97005.69;;;-1.36;47.64
31873;BME280;22407;42.820;23.374;2024-01-10T09:51:42;97004.53;;;-1.01;49.82
31873;BME280;22407;42.820;23.374;2024-01-10T09:54:08;96997.22;;;-0.61;47.19
31873;BME280;22407;42.820;23.374;2024-01-10T09:56:33;96999.03;;;-0.42;47.95
31873;BME280;22407;42.820;23.374;2024-01-10T09:59:01;96996.78;;;-0.38;45.22
31873;BME280;22407;42.820;23.374;2024-01-10T10:01:27;96993.28;;;-0.39;46.90
31873;BME280;22407;42.820;23.374;2024-01-10T10:03:53;96985.94;;;-0.43;46.76
31873;BME280;22407;42.820;23.374;2024-01-10T10:06:21;96989.03;;;-0.59;47.17
31873;BME280;22407;42.820;23.374;2024-01-10T10:08:47;96978.78;;;-0.69;49.37
31873;BME280;22407;42.820;23.374;2024-01-10T10:11:13;96980.03;;;-0.65;46.66
31873;BME280;22407;42.820;23.374;2024-01-10T10:13:39;96980.44;;;-0.55;48.07
31873;BME280;22407;42.820;23.374;2024-01-10T10:16:07;96979.59;;;-0.42;47.63
31873;BME280;22407;42.820;23.374;2024-01-10T10:18:35;96982.47;;;-0.70;48.05
31873;BME280;22407;42.820;23.374;2024-01-10T10:21:13;96975.91;;;-0.48;48.08
31873;BME280;22407;42.820;23.374;2024-01-10T10:23:40;96964.47;;;-0.48;46.63
31873;BME280;22407;42.820;23.374;2024-01-10T10:26:26;96965.50;;;-0.49;47.37
31873;BME280;22407;42.820;23.374;2024-01-10T10:28:52;96969.38;;;-0.52;48.80
31873;BME280;22407;42.820;23.374;2024-01-10T10:31:18;96965.53;;;-0.75;49.92
31873;BME280;22407;42.820;23.374;2024-01-10T10:33:45;96949.75;;;-0.57;48.66
31873;BME280;22407;42.820;23.374;2024-01-10T10:36:13;96956.88;;;-0.32;47.26
31873;BME280;22407;42.820;23.374;2024-01-10T10:38:39;96951.56;;;-0.45;45.70
31873;BME280;22407;42.820;23.374;2024-01-10T10:41:06;96942.56;;;-0.44;46.36
31873;BME280;22407;42.820;23.374;2024-01-10T10:43:37;96946.47;;;-0.46;47.28
31873;BME280;22407;42.820;23.374;2024-01-10T10:46:10;96937.03;;;-0.36;48.39
31873;BME280;22407;42.820;23.374;2024-01-10T10:48:40;96942.75;;;-0.39;47.26
31873;BME280;22407;42.820;23.374;2024-01-10T10:51:23;96928.81;;;-0.34;48.85
31873;BME280;22407;42.820;23.374;2024-01-10T10:53:54;96924.13;;;-0.26;48.88
31873;BME280;22407;42.820;23.374;2024-01-10T10:56:20;96920.84;;;-0.28;48.01
31873;BME280;22407;42.820;23.374;2024-01-10T10:58:46;96913.06;;;-0.23;49.42
31873;BME280;22407;42.820;23.374;2024-01-10T11:01:13;96902.03;;;-0.26;48.03
31873;BME280;22407;42.820;23.374;2024-01-10T11:03:40;96907.50;;;-0.15;48.53
31873;BME280;22407;42.820;23.374;2024-01-10T11:06:07;96903.44;;;-0.24;48.97
31873;BME280;22407;42.820;23.374;2024-01-10T11:09:05;96898.28;;;-0.19;49.82
31873;BME280;22407;42.820;23.374;2024-01-10T11:14:52;96896.91;;;-0.28;50.37
31873;BME280;22407;42.820;23.374;2024-01-10T11:17:57;96894.44;;;-0.23;52.15
31873;BME280;22407;42.820;23.374;2024-01-10T11:23:37;96883.22;;;-0.44;49.93
31873;BME280;22407;42.820;23.374;2024-01-10T11:26:04;96879.16;;;-0.40;49.58
31873;BME280;22407;42.820;23.374;2024-01-10T11:28:33;96881.56;;;-0.26;50.64
31873;BME280;22407;42.820;23.374;2024-01-10T11:30:59;96867.59;;;-0.15;49.68
31873;BME280;22407;42.820;23.374;2024-01-10T11:33:30;96869.47;;;-0.22;53.12
31873;BME280;22407;42.820;23.374;2024-01-10T11:36:23;96864.53;;;-0.12;50.91
31873;BME280;22407;42.820;23.374;2024-01-10T11:41:32;96858.69;;;0.04;54.27
31873;BME280;22407;42.820;23.374;2024-01-10T11:49:08;96843.56;;;0.04;53.56
31873;BME280;22407;42.820;23.374;2024-01-10T11:51:35;96837.03;;;0.00;54.18
31873;BME280;22407;42.820;23.374;2024-01-10T11:54:02;96838.19;;;0.11;54.43
31873;BME280;22407;42.820;23.374;2024-01-10T11:56:38;96838.44;;;0.03;54.29
31873;BME280;22407;42.820;23.374;2024-01-10T11:59:07;96831.59;;;0.20;53.35
31873;BME280;22407;42.820;23.374;2024-01-10T12:01:35;96826.19;;;0.33;53.56
31873;BME280;22407;42.820;23.374;2024-01-10T12:04:02;96826.69;;;0.17;54.45
31873;BME280;22407;42.820;23.374;2024-01-10T12:06:29;96832.81;;;0.17;56.03
31873;BME280;22407;42.820;23.374;2024-01-10T12:08:55;96820.38;;;0.11;54.46
31873;BME280;22407;42.820;23.374;2024-01-10T12:11:21;96831.66;;;0.44;54.46
31873;BME280;22407;42.820;23.374;2024-01-10T12:13:47;96825.13;;;0.65;53.75
31873;BME280;22407;42.820;23.374;2024-01-10T12:16:13;96820.84;;;0.64;52.08
31873;BME280;22407;42.820;23.374;2024-01-10T12:18:42;96816.13;;;0.66;55.23
31873;BME280;22407;42.820;23.374;2024-01-10T12:21:07;96811.66;;;0.84;54.50
31873;BME280;22407;42.820;23.374;2024-01-10T12:23:37;96816.66;;;0.50;54.79
31873;BME280;22407;42.820;23.374;2024-01-10T12:26:09;96802.47;;;0.80;52.54
31873;BME280;22407;42.820;23.374;2024-01-10T12:28:35;96806.75;;;1.05;53.49
31873;BME280;22407;42.820;23.374;2024-01-10T12:31:03;96805.28;;;0.85;52.50
31873;BME280;22407;42.820;23.374;2024-01-10T12:33:29;96814.56;;;0.76;52.58
31873;BME280;22407;42.820;23.374;2024-01-10T12:36:10;96811.84;;;0.82;54.37
31873;BME280;22407;42.820;23.374;2024-01-10T12:38:37;96802.72;;;0.96;54.52
31873;BME280;22407;42.820;23.374;2024-01-10T12:41:04;96822.31;;;0.60;54.89
31873;BME280;22407;42.820;23.374;2024-01-10T12:43:30;96815.50;;;0.88;53.86
31873;BME280;22407;42.820;23.374;2024-01-10T12:46:12;96805.13;;;1.22;54.93
31873;BME280;22407;42.820;23.374;2024-01-10T12:48:38;96809.00;;;1.26;54.06
31873;BME280;22407;42.820;23.374;2024-01-10T12:51:12;96813.78;;;1.18;53.75
31873;BME280;22407;42.820;23.374;2024-01-10T12:53:40;96815.47;;;0.70;53.77
31873;BME280;22407;42.820;23.374;2024-01-10T12:56:08;96816.06;;;0.48;55.61
31873;BME280;22407;42.820;23.374;2024-01-10T12:58:35;96815.09;;;0.36;55.28
31873;BME280;22407;42.820;23.374;2024-01-10T13:01:05;96809.34;;;0.39;54.91
31873;BME280;22407;42.820;23.374;2024-01-10T13:03:30;96817.16;;;0.34;54.25